Time;durP1;ratioP1;P1;durP2;ratioP2;P2;SDS_P1;SDS_P2;PMS_P1;PMS_P2;Temp;Humidity;BMP_temperature;BMP_pressure;BME280_temperature;BME280_humidity;BME280_pressure;Samples;Min_cycle;Max_cycle;Signal;HPM_P1;HPM_P2
2021/06/19 00:00:28;;;;;;;3.17;2.55;;;;;;;;;;5107775;27;20025;-56
2021/06/19 00:02:54;;;;;;;6.93;3.85;;;;;;;;;;5104784;27;20477;-56
2021/06/19 00:05:19;;;;;;;4.10;2.58;;;;;;;;;;5105493;27;20020;-55
2021/06/19 00:07:44;;;;;;;5.85;3.13;;;;;;;;;;5104144;27;20466;-58
2021/06/19 00:10:12;;;;;;;6.88;3.90;;;;;;;;;;5096031;27;20314;-58
2021/06/19 00:12:37;;;;;;;8.43;2.83;;;;;;;;;;5105255;27;20516;-57
2021/06/19 00:15:04;;;;;;;11.40;4.72;;;;;;;;;;5104466;27;20524;-56
2021/06/19 00:17:29;;;;;;;14.80;5.00;;;;;;;;;;5102475;27;20114;-57
2021/06/19 00:19:55;;;;;;;8.30;3.65;;;;;;;;;;5101600;27;20115;-57
2021/06/19 00:22:20;;;;;;;5.15;3.28;;;;;;;;;;5100580;27;20020;-56
2021/06/19 00:24:45;;;;;;;8.63;4.30;;;;;;;;;;5103228;27;20016;-57
2021/06/19 00:27:11;;;;;;;15.90;5.40;;;;;;;;;;5102905;27;20175;-57
2021/06/19 00:29:36;;;;;;;12.77;4.22;;;;;;;;;;5111683;27;20512;-57
2021/06/19 00:32:01;;;;;;;10.43;4.88;;;;;;;;;;5106239;27;20028;-56
2021/06/19 00:34:27;;;;;;;5.32;3.80;;;;;;;;;;5099093;27;20066;-57
2021/06/19 00:36:52;;;;;;;10.00;4.80;;;;;;;;;;5099747;27;20027;-57
2021/06/19 00:39:17;;;;;;;10.48;4.07;;;;;;;;;;5103960;27;20027;-58
2021/06/19 00:41:43;;;;;;;6.15;3.38;;;;;;;;;;5100395;27;20032;-57
2021/06/19 00:44:16;;;;;;;10.82;4.45;;;;;;;;;;5098928;27;20091;-57
2021/06/19 00:46:41;;;;;;;19.05;4.68;;;;;;;;;;5098023;27;20106;-57
2021/06/19 00:49:06;;;;;;;12.77;4.78;;;;;;;;;;5102155;27;20389;-57
2021/06/19 00:51:32;;;;;;;6.75;2.92;;;;;;;;;;5102523;27;20466;-55
2021/06/19 00:53:57;;;;;;;9.80;3.40;;;;;;;;;;5107924;27;20032;-57
2021/06/19 00:56:22;;;;;;;7.97;3.58;;;;;;;;;;5104042;27;20085;-57
2021/06/19 00:58:48;;;;;;;9.27;3.95;;;;;;;;;;5100553;27;20386;-57
2021/06/19 01:01:13;;;;;;;9.48;3.17;;;;;;;;;;5103066;27;20484;-57
2021/06/19 01:03:39;;;;;;;3.60;2.03;;;;;;;;;;5096249;27;20020;-55
2021/06/19 01:06:04;;;;;;;4.55;2.97;;;;;;;;;;5104425;27;20015;-56
2021/06/19 01:08:29;;;;;;;22.33;4.28;;;;;;;;;;5106099;27;20028;-56
2021/06/19 01:10:55;;;;;;;7.78;3.95;;;;;;;;;;5109189;27;20111;-57
2021/06/19 01:13:21;;;;;;;14.93;4.15;;;;;;;;;;5106253;27;20083;-57
2021/06/19 01:15:46;;;;;;;7.45;3.55;;;;;;;;;;5104685;27;20034;-57
2021/06/19 01:18:14;;;;;;;16.02;6.03;;;;;;;;;;5100822;28;20028;-56
2021/06/19 01:20:40;;;;;;;10.32;4.65;;;;;;;;;;5103386;28;20107;-57
2021/06/19 01:23:05;;;;;;;14.80;2.92;;;;;;;;;;5098967;27;20095;-57
2021/06/19 01:25:33;;;;;;;5.20;3.83;;;;;;;;;;5099132;27;20027;-57
2021/06/19 01:28:10;;;;;;;6.72;3.00;;;;;;;;;;5103158;27;20518;-57
2021/06/19 01:30:36;;;;;;;3.40;2.63;;;;;;;;;;5103063;28;20023;-56
2021/06/19 01:33:02;;;;;;;10.88;4.15;;;;;;;;;;5103036;28;20091;-58
2021/06/19 01:35:27;;;;;;;6.78;3.83;;;;;;;;;;5101561;28;20035;-56
2021/06/19 01:37:54;;;;;;;6.70;4.22;;;;;;;;;;5103156;28;20051;-57
2021/06/19 01:40:26;;;;;;;20.70;3.97;;;;;;;;;;5102558;28;20031;-56
2021/06/19 01:42:55;;;;;;;7.55;2.70;;;;;;;;;;5106212;28;20024;-57
2021/06/19 01:45:25;;;;;;;10.63;4.40;;;;;;;;;;5102398;28;20028;-56
2021/06/19 01:47:51;;;;;;;4.00;3.08;;;;;;;;;;5100736;28;20019;-57
2021/06/19 01:50:18;;;;;;;8.68;2.45;;;;;;;;;;5102795;28;20115;-58
2021/06/19 01:52:44;;;;;;;9.73;3.55;;;;;;;;;;5103217;28;20106;-56
2021/06/19 01:55:12;;;;;;;7.45;3.67;;;;;;;;;;5098588;28;20106;-57
2021/06/19 01:57:38;;;;;;;6.40;3.40;;;;;;;;;;5097660;28;20387;-58
2021/06/19 02:00:10;;;;;;;7.15;4.60;;;;;;;;;;5101835;28;20027;-56
2021/06/19 02:02:39;;;;;;;16.08;4.65;;;;;;;;;;5104115;28;20100;-57
2021/06/19 02:05:05;;;;;;;8.27;3.95;;;;;;;;;;5102122;28;20054;-58
2021/06/19 02:07:31;;;;;;;4.45;2.63;;;;;;;;;;5099900;28;20556;-54
2021/06/19 02:09:56;;;;;;;9.65;3.45;;;;;;;;;;5096478;28;20027;-57
2021/06/19 02:12:22;;;;;;;13.18;3.80;;;;;;;;;;5098217;28;20127;-58
2021/06/19 02:14:47;;;;;;;9.27;5.05;;;;;;;;;;5098039;28;20028;-57
2021/06/19 02:17:12;;;;;;;10.20;4.28;;;;;;;;;;5099870;27;20031;-57
2021/06/19 02:19:38;;;;;;;9.95;4.20;;;;;;;;;;5101973;28;20079;-57
2021/06/19 02:22:04;;;;;;;5.00;3.65;;;;;;;;;;5103568;28;20440;-57
2021/06/19 02:24:29;;;;;;;7.38;3.83;;;;;;;;;;5102422;28;20024;-57
2021/06/19 02:27:08;;;;;;;6.10;2.90;;;;;;;;;;5106129;28;20016;-57
2021/06/19 02:29:33;;;;;;;12.38;3.33;;;;;;;;;;5104603;28;20156;-57
2021/06/19 02:31:58;;;;;;;2.55;1.95;;;;;;;;;;5102774;28;20040;-56
2021/06/19 02:34:23;;;;;;;6.13;4.25;;;;;;;;;;5102539;28;20015;-58
2021/06/19 02:36:49;;;;;;;5.22;3.13;;;;;;;;;;5100973;28;20019;-57
2021/06/19 02:39:14;;;;;;;8.80;3.70;;;;;;;;;;5099124;28;20052;-57
2021/06/19 02:41:39;;;;;;;11.75;5.20;;;;;;;;;;5100914;27;20501;-57
2021/06/19 02:44:05;;;;;;;10.38;3.67;;;;;;;;;;5111866;27;20020;-59
2021/06/19 02:46:30;;;;;;;5.18;2.92;;;;;;;;;;5105424;27;20112;-58
2021/06/19 02:48:55;;;;;;;15.13;4.82;;;;;;;;;;5104269;27;20479;-57
2021/06/19 02:51:21;;;;;;;5.97;3.00;;;;;;;;;;5102192;27;20035;-58
2021/06/19 02:53:46;;;;;;;7.07;3.78;;;;;;;;;;5104480;27;20038;-56
2021/06/19 02:56:11;;;;;;;10.57;3.55;;;;;;;;;;5107164;27;20115;-58
2021/06/19 02:58:36;;;;;;;10.45;4.72;;;;;;;;;;5108943;27;20027;-58
2021/06/19 03:01:02;;;;;;;5.00;3.88;;;;;;;;;;5111101;27;20498;-56
2021/06/19 03:03:27;;;;;;;10.02;3.92;;;;;;;;;;5104173;27;20119;-57
2021/06/19 03:05:52;;;;;;;16.25;5.25;;;;;;;;;;5102774;27;20024;-56
2021/06/19 03:08:18;;;;;;;9.60;4.43;;;;;;;;;;5100991;27;20155;-56
2021/06/19 03:10:43;;;;;;;9.82;4.25;;;;;;;;;;5107429;27;20385;-55
2021/06/19 03:13:08;;;;;;;6.85;3.35;;;;;;;;;;5104718;27;20020;-57
2021/06/19 03:15:34;;;;;;;8.93;3.17;;;;;;;;;;5102283;27;20024;-57
2021/06/19 03:17:59;;;;;;;6.55;3.10;;;;;;;;;;5103737;27;20024;-57
2021/06/19 03:20:25;;;;;;;10.07;4.25;;;;;;;;;;5104120;27;20087;-57
2021/06/19 03:22:58;;;;;;;14.02;4.32;;;;;;;;;;5105177;27;20023;-56
2021/06/19 03:25:24;;;;;;;9.95;3.70;;;;;;;;;;5105922;27;20023;-58
2021/06/19 03:27:50;;;;;;;14.40;5.03;;;;;;;;;;5107248;27;20021;-58
2021/06/19 03:30:17;;;;;;;8.13;3.95;;;;;;;;;;5110925;27;20027;-58
2021/06/19 03:32:42;;;;;;;16.90;3.25;;;;;;;;;;5105722;27;20028;-58
2021/06/19 03:35:07;;;;;;;15.27;4.40;;;;;;;;;;5103510;27;20711;-58
2021/06/19 03:37:33;;;;;;;15.32;4.90;;;;;;;;;;5102854;27;20435;-57
2021/06/19 03:39:58;;;;;;;6.85;2.97;;;;;;;;;;5101440;27;20081;-58
2021/06/19 03:42:24;;;;;;;10.27;4.72;;;;;;;;;;5104082;27;20014;-58
2021/06/19 03:44:49;;;;;;;6.07;3.17;;;;;;;;;;5102422;27;20024;-58
2021/06/19 03:47:14;;;;;;;34.45;5.32;;;;;;;;;;5099350;27;20015;-58
2021/06/19 03:49:39;;;;;;;16.88;5.07;;;;;;;;;;5100149;27;20103;-61
2021/06/19 03:52:05;;;;;;;7.55;4.75;;;;;;;;;;5103798;27;20096;-61
2021/06/19 03:54:30;;;;;;;6.70;3.38;;;;;;;;;;5106158;27;20658;-61
2021/06/19 03:56:55;;;;;;;10.00;4.03;;;;;;;;;;5101754;27;20490;-61
2021/06/19 03:59:21;;;;;;;8.18;4.05;;;;;;;;;;5103161;27;20028;-62
2021/06/19 04:01:46;;;;;;;10.50;3.40;;;;;;;;;;5101785;27;20105;-62
2021/06/19 04:04:11;;;;;;;10.40;3.72;;;;;;;;;;5098716;27;20364;-61
2021/06/19 04:06:36;;;;;;;4.65;2.97;;;;;;;;;;5107162;27;20776;-61
2021/06/19 04:09:02;;;;;;;5.90;3.95;;;;;;;;;;5105341;27;20056;-61
2021/06/19 04:11:28;;;;;;;8.52;3.70;;;;;;;;;;5105251;27;20019;-62
2021/06/19 04:13:53;;;;;;;13.43;3.65;;;;;;;;;;5101450;27;20387;-61
2021/06/19 04:16:18;;;;;;;8.55;3.58;;;;;;;;;;5106519;27;20027;-62
2021/06/19 04:18:43;;;;;;;20.60;15.35;;;;;;;;;;5105710;27;20023;-62
2021/06/19 04:21:09;;;;;;;9.93;3.85;;;;;;;;;;5106230;27;20418;-61
2021/06/19 04:23:35;;;;;;;14.68;5.60;;;;;;;;;;5098581;28;20020;-60
2021/06/19 04:26:01;;;;;;;13.57;3.83;;;;;;;;;;5097368;28;20054;-62
2021/06/19 04:28:26;;;;;;;4.80;3.65;;;;;;;;;;5105812;27;20094;-62
2021/06/19 04:30:53;;;;;;;6.30;3.22;;;;;;;;;;5104847;27;20526;-63
2021/06/19 04:33:19;;;;;;;11.85;4.75;;;;;;;;;;5101193;27;20754;-63
2021/06/19 04:35:44;;;;;;;9.15;4.32;;;;;;;;;;5105260;27;20031;-62
2021/06/19 04:38:09;;;;;;;10.25;4.03;;;;;;;;;;5104819;27;20035;-60
2021/06/19 04:40:41;;;;;;;6.80;3.97;;;;;;;;;;5100575;27;20387;-63
2021/06/19 04:43:08;;;;;;;8.27;4.47;;;;;;;;;;5106786;27;20019;-63
2021/06/19 04:45:35;;;;;;;13.60;4.68;;;;;;;;;;5112962;27;20055;-62
2021/06/19 04:48:01;;;;;;;8.88;3.00;;;;;;;;;;5102879;27;20018;-62
2021/06/19 04:50:26;;;;;;;13.63;4.72;;;;;;;;;;5105441;27;20020;-63
2021/06/19 04:52:52;;;;;;;9.23;4.05;;;;;;;;;;5102982;27;20047;-63
2021/06/19 04:55:18;;;;;;;8.70;3.67;;;;;;;;;;5103123;27;20098;-62
2021/06/19 04:57:44;;;;;;;7.00;4.00;;;;;;;;;;5104877;27;20106;-62
2021/06/19 05:00:10;;;;;;;5.60;2.67;;;;;;;;;;5100092;27;20460;-63
2021/06/19 05:02:36;;;;;;;6.93;3.33;;;;;;;;;;5099766;27;20027;-62
2021/06/19 05:05:01;;;;;;;9.10;3.85;;;;;;;;;;5100707;27;20016;-63
2021/06/19 05:07:27;;;;;;;6.97;3.92;;;;;;;;;;5099473;27;20074;-63
2021/06/19 05:09:52;;;;;;;8.82;4.25;;;;;;;;;;5100587;27;20557;-61
2021/06/19 05:12:17;;;;;;;15.48;5.30;;;;;;;;;;5102356;27;20077;-61
2021/06/19 05:14:43;;;;;;;6.50;3.72;;;;;;;;;;5106500;27;20026;-61
2021/06/19 05:17:08;;;;;;;22.48;4.80;;;;;;;;;;5106091;27;20513;-61
2021/06/19 05:19:33;;;;;;;12.02;5.13;;;;;;;;;;5103023;27;20135;-61
2021/06/19 05:21:59;;;;;;;21.00;5.15;;;;;;;;;;5104214;27;20038;-61
2021/06/19 05:24:24;;;;;;;9.93;3.63;;;;;;;;;;5102050;28;20386;-60
2021/06/19 05:26:49;;;;;;;9.30;4.85;;;;;;;;;;5100154;27;20030;-61
2021/06/19 05:29:15;;;;;;;3.58;3.28;;;;;;;;;;5096697;28;20031;-61
2021/06/19 05:31:40;;;;;;;13.65;5.25;;;;;;;;;;5104568;27;20023;-61
2021/06/19 05:34:05;;;;;;;11.35;6.10;;;;;;;;;;5098382;28;20366;-61
2021/06/19 05:36:31;;;;;;;7.78;5.00;;;;;;;;;;5098907;28;20475;-60
2021/06/19 05:38:56;;;;;;;12.85;4.47;;;;;;;;;;5102891;28;20028;-61
2021/06/19 05:41:21;;;;;;;12.40;3.92;;;;;;;;;;5104008;28;20015;-61
2021/06/19 05:43:47;;;;;;;10.85;4.63;;;;;;;;;;5107384;28;20030;-61
2021/06/19 05:46:13;;;;;;;7.30;4.43;;;;;;;;;;5100116;28;20032;-61
2021/06/19 05:48:38;;;;;;;12.85;4.68;;;;;;;;;;5103818;28;20427;-61
2021/06/19 05:51:03;;;;;;;12.65;2.97;;;;;;;;;;5107862;28;20068;-61
2021/06/19 05:53:29;;;;;;;7.32;4.13;;;;;;;;;;5099281;28;20057;-60
2021/06/19 05:55:54;;;;;;;11.88;3.55;;;;;;;;;;5097132;28;20023;-61
2021/06/19 05:58:19;;;;;;;10.15;5.82;;;;;;;;;;5098589;28;20383;-61
2021/06/19 06:00:45;;;;;;;14.65;5.72;;;;;;;;;;5100583;28;20020;-61
2021/06/19 06:03:10;;;;;;;7.43;3.90;;;;;;;;;;5095775;28;20021;-61
2021/06/19 06:05:35;;;;;;;9.77;3.33;;;;;;;;;;5099179;28;20016;-61
2021/06/19 06:08:01;;;;;;;3.75;2.53;;;;;;;;;;5104574;27;20043;-61
2021/06/19 06:10:27;;;;;;;10.70;4.78;;;;;;;;;;5110814;28;20067;-61
2021/06/19 06:12:52;;;;;;;8.50;3.35;;;;;;;;;;5100652;28;20475;-62
2021/06/19 06:15:17;;;;;;;6.70;5.60;;;;;;;;;;5103029;27;20031;-63
2021/06/19 06:17:43;;;;;;;19.52;7.57;;;;;;;;;;5106315;27;20563;-63
2021/06/19 06:20:08;;;;;;;32.03;16.02;;;;;;;;;;5107669;27;20558;-63
2021/06/19 06:22:34;;;;;;;16.27;12.43;;;;;;;;;;5110588;27;20043;-63
2021/06/19 06:24:59;;;;;;;21.23;14.65;;;;;;;;;;5107543;27;20016;-63
2021/06/19 06:27:24;;;;;;;26.30;22.50;;;;;;;;;;5105093;27;20030;-63
2021/06/19 06:29:50;;;;;;;31.70;20.05;;;;;;;;;;5108118;27;20023;-63
2021/06/19 06:32:15;;;;;;;22.58;17.52;;;;;;;;;;5107662;27;20047;-63
2021/06/19 06:34:40;;;;;;;13.18;10.60;;;;;;;;;;5104780;27;20486;-63
2021/06/19 06:37:07;;;;;;;8.68;4.15;;;;;;;;;;5107893;27;20470;-60
2021/06/19 06:39:33;;;;;;;11.68;5.00;;;;;;;;;;5100577;27;20024;-61
2021/06/19 06:42:00;;;;;;;6.03;3.75;;;;;;;;;;5103724;27;20008;-61
2021/06/19 06:44:25;;;;;;;12.68;4.50;;;;;;;;;;5106324;27;20012;-61
2021/06/19 06:46:51;;;;;;;15.20;3.85;;;;;;;;;;5104355;27;20080;-61
2021/06/19 06:49:17;;;;;;;18.65;3.45;;;;;;;;;;5098749;27;20023;-61
2021/06/19 06:51:42;;;;;;;12.63;3.70;;;;;;;;;;5102145;27;20034;-61
2021/06/19 06:54:08;;;;;;;11.85;4.13;;;;;;;;;;5105966;27;20016;-61
2021/06/19 06:56:33;;;;;;;7.15;4.85;;;;;;;;;;5101030;27;20364;-61
2021/06/19 06:58:58;;;;;;;9.48;4.22;;;;;;;;;;5102553;27;20024;-60
2021/06/19 07:01:24;;;;;;;14.55;3.80;;;;;;;;;;5102540;27;20020;-61
2021/06/19 07:03:54;;;;;;;6.93;3.83;;;;;;;;;;5105295;27;20402;-61
2021/06/19 07:06:19;;;;;;;8.48;3.75;;;;;;;;;;5108454;27;20048;-62
2021/06/19 07:08:44;;;;;;;6.55;4.22;;;;;;;;;;5109071;27;20634;-62
2021/06/19 07:11:09;;;;;;;13.90;3.83;;;;;;;;;;5110024;27;20068;-62
2021/06/19 07:13:35;;;;;;;8.43;4.60;;;;;;;;;;5102418;27;20465;-63
2021/06/19 07:16:00;;;;;;;22.35;10.25;;;;;;;;;;5106246;27;20024;-62
2021/06/19 07:18:26;;;;;;;11.32;6.28;;;;;;;;;;5102315;27;20073;-62
2021/06/19 07:20:52;;;;;;;7.05;4.05;;;;;;;;;;5101493;27;20085;-63
2021/06/19 07:23:17;;;;;;;6.88;3.90;;;;;;;;;;5102338;27;20102;-62
2021/06/19 07:25:42;;;;;;;8.68;5.82;;;;;;;;;;5101159;27;20471;-62
2021/06/19 07:28:07;;;;;;;10.40;6.10;;;;;;;;;;5101835;27;20058;-62
2021/06/19 07:30:33;;;;;;;16.75;7.43;;;;;;;;;;5103290;27;20055;-62
2021/06/19 07:32:59;;;;;;;12.27;6.18;;;;;;;;;;5100722;27;20027;-62
2021/06/19 07:35:24;;;;;;;9.30;5.03;;;;;;;;;;5107291;27;20050;-62
2021/06/19 07:37:49;;;;;;;5.88;4.18;;;;;;;;;;5109597;27;20679;-62
2021/06/19 07:40:15;;;;;;;9.18;3.05;;;;;;;;;;5108834;27;20020;-62
2021/06/19 07:42:41;;;;;;;10.70;3.95;;;;;;;;;;5105995;27;20060;-62
2021/06/19 07:45:07;;;;;;;11.35;4.53;;;;;;;;;;5108423;27;20108;-62
2021/06/19 07:47:33;;;;;;;8.40;3.50;;;;;;;;;;5104120;27;20034;-63
2021/06/19 07:49:58;;;;;;;3.67;2.08;;;;;;;;;;5104194;27;20127;-62
2021/06/19 07:52:23;;;;;;;4.47;2.53;;;;;;;;;;5102947;27;20016;-62
2021/06/19 07:54:49;;;;;;;10.27;4.13;;;;;;;;;;5116166;27;20031;-62
2021/06/19 07:57:14;;;;;;;12.52;5.25;;;;;;;;;;5118382;27;20034;-62
2021/06/19 07:59:39;;;;;;;6.32;3.15;;;;;;;;;;5105093;27;20023;-62
2021/06/19 08:02:07;;;;;;;9.15;4.93;;;;;;;;;;5099467;27;20023;-62
2021/06/19 08:04:33;;;;;;;9.23;3.67;;;;;;;;;;5100965;27;20025;-62
2021/06/19 08:06:59;;;;;;;8.23;3.30;;;;;;;;;;5101619;27;20039;-62
2021/06/19 08:09:24;;;;;;;5.82;2.63;;;;;;;;;;5104222;27;20028;-62
2021/06/19 08:11:50;;;;;;;4.07;2.53;;;;;;;;;;5101761;27;20030;-62
2021/06/19 08:14:16;;;;;;;4.68;3.28;;;;;;;;;;5104370;27;20030;-62
2021/06/19 08:16:42;;;;;;;14.95;4.35;;;;;;;;;;5095769;27;20070;-62
2021/06/19 08:19:07;;;;;;;6.97;3.85;;;;;;;;;;5098377;27;20067;-62
2021/06/19 08:21:32;;;;;;;17.00;5.05;;;;;;;;;;5104372;27;20503;-62
2021/06/19 08:23:58;;;;;;;13.95;3.92;;;;;;;;;;5103254;27;20020;-62
2021/06/19 08:26:23;;;;;;;7.22;3.28;;;;;;;;;;5105538;27;20028;-62
2021/06/19 08:28:48;;;;;;;4.22;2.38;;;;;;;;;;5111734;27;20496;-62
2021/06/19 08:31:13;;;;;;;14.75;6.43;;;;;;;;;;5110702;27;20490;-62
2021/06/19 08:33:39;;;;;;;9.38;5.15;;;;;;;;;;5104461;27;20069;-62
2021/06/19 08:36:04;;;;;;;11.70;4.55;;;;;;;;;;5106300;27;20030;-64
2021/06/19 08:38:30;;;;;;;14.10;4.05;;;;;;;;;;5103006;27;20031;-63
2021/06/19 08:40:55;;;;;;;5.63;3.00;;;;;;;;;;5104759;27;20111;-62
2021/06/19 08:43:20;;;;;;;5.57;2.80;;;;;;;;;;5099340;27;20042;-63
2021/06/19 08:45:48;;;;;;;6.05;2.90;;;;;;;;;;5101833;27;20381;-64
2021/06/19 08:48:16;;;;;;;3.92;2.83;;;;;;;;;;5102116;27;20020;-62
2021/06/19 08:50:42;;;;;;;9.88;4.00;;;;;;;;;;5105259;27;20030;-64
2021/06/19 08:53:08;;;;;;;10.70;4.00;;;;;;;;;;5105685;27;20016;-57
2021/06/19 08:55:33;;;;;;;8.50;4.22;;;;;;;;;;5104379;27;20106;-57
2021/06/19 08:57:59;;;;;;;6.97;3.88;;;;;;;;;;5103327;27;20371;-57
2021/06/19 09:00:24;;;;;;;9.98;3.53;;;;;;;;;;5097850;27;20383;-57
2021/06/19 09:02:51;;;;;;;7.70;3.53;;;;;;;;;;5102824;27;20022;-57
2021/06/19 09:05:18;;;;;;;4.78;2.53;;;;;;;;;;5102332;28;20482;-56
2021/06/19 09:07:47;;;;;;;4.65;2.67;;;;;;;;;;5102479;27;20144;-57
2021/06/19 09:10:23;;;;;;;8.60;4.13;;;;;;;;;;5104291;27;20034;-57
2021/06/19 09:13:08;;;;;;;4.43;2.53;;;;;;;;;;5100352;27;20156;-57
2021/06/19 09:15:43;;;;;;;11.75;3.85;;;;;;;;;;5095012;28;20019;-55
2021/06/19 09:18:09;;;;;;;10.73;2.88;;;;;;;;;;5099292;27;20513;-57
2021/06/19 09:20:40;;;;;;;9.82;2.83;;;;;;;;;;5101518;27;20031;-57
2021/06/19 09:23:06;;;;;;;10.82;3.78;;;;;;;;;;5104311;28;20237;-57
2021/06/19 09:25:32;;;;;;;4.57;2.78;;;;;;;;;;5099831;27;20094;-56
2021/06/19 09:27:57;;;;;;;38.60;7.63;;;;;;;;;;5105834;27;20458;-56
2021/06/19 09:30:23;;;;;;;6.57;3.35;;;;;;;;;;5107630;27;20023;-57
2021/06/19 09:32:51;;;;;;;24.25;4.72;;;;;;;;;;5103291;28;20016;-57
2021/06/19 09:35:25;;;;;;;25.45;11.25;;;;;;;;;;5101459;27;20027;-56
2021/06/19 09:37:52;;;;;;;23.35;7.53;;;;;;;;;;5102358;28;20015;-57
2021/06/19 09:40:22;;;;;;;14.93;5.03;;;;;;;;;;5098609;28;20051;-47
2021/06/19 09:42:47;;;;;;;9.85;6.72;;;;;;;;;;5105260;28;20012;-52
2021/06/19 09:45:20;;;;;;;6.95;4.95;;;;;;;;;;5103200;28;20020;-51
2021/06/19 09:47:45;;;;;;;5.97;5.20;;;;;;;;;;5099081;28;20019;-51
2021/06/19 09:50:11;;;;;;;23.40;4.70;;;;;;;;;;5101254;27;20505;-50
2021/06/19 09:52:36;;;;;;;10.38;4.10;;;;;;;;;;5104682;27;20020;-49
2021/06/19 09:55:02;;;;;;;11.88;3.50;;;;;;;;;;5108368;27;20471;-48
2021/06/19 09:57:40;;;;;;;13.55;4.80;;;;;;;;;;5110528;27;20052;-49
2021/06/19 10:00:06;;;;;;;7.45;4.53;;;;;;;;;;5107538;27;20487;-50
2021/06/19 10:02:32;;;;;;;7.82;3.67;;;;;;;;;;5105492;27;20020;-49
2021/06/19 10:04:57;;;;;;;27.27;6.68;;;;;;;;;;5100515;27;20016;-48
2021/06/19 10:07:24;;;;;;;9.52;5.90;;;;;;;;;;5099552;27;20035;-49
2021/06/19 10:09:50;;;;;;;11.95;7.10;;;;;;;;;;5105970;27;20024;-52
2021/06/19 10:12:20;;;;;;;17.85;7.50;;;;;;;;;;5109842;27;20031;-49
2021/06/19 10:14:45;;;;;;;42.60;6.97;;;;;;;;;;5110871;27;20024;-52
2021/06/19 10:17:13;;;;;;;16.65;5.50;;;;;;;;;;5107682;27;20119;-51
2021/06/19 10:19:41;;;;;;;17.40;6.18;;;;;;;;;;5108698;27;20039;-51
2021/06/19 10:22:07;;;;;;;31.52;8.25;;;;;;;;;;5106170;27;20023;-50
2021/06/19 10:24:32;;;;;;;27.00;7.45;;;;;;;;;;5107708;27;20019;-51
2021/06/19 10:26:58;;;;;;;26.30;7.82;;;;;;;;;;5102131;27;20023;-49
2021/06/19 10:29:24;;;;;;;37.42;11.45;;;;;;;;;;5104732;27;20035;-47
2021/06/19 10:31:50;;;;;;;6.45;3.05;;;;;;;;;;5109448;27;20036;-49
2021/06/19 10:34:18;;;;;;;34.65;8.55;;;;;;;;;;5102376;27;20046;-48
2021/06/19 10:36:44;;;;;;;57.92;8.88;;;;;;;;;;5105560;27;20028;-50
2021/06/19 10:39:09;;;;;;;40.17;10.27;;;;;;;;;;5108115;27;20364;-27
2021/06/19 10:41:50;;;;;;;32.83;14.40;;;;;;;;;;5097132;27;20023;-27
2021/06/19 10:44:35;;;;;;;47.95;13.60;;;;;;;;;;5101151;27;20024;-28
2021/06/19 10:47:01;;;;;;;38.72;12.13;;;;;;;;;;5097433;27;20023;-27
2021/06/19 10:49:29;;;;;;;37.58;13.05;;;;;;;;;;5106047;27;20027;-27
2021/06/19 10:52:13;;;;;;;50.15;14.38;;;;;;;;;;5102079;27;20094;-27
2021/06/19 10:54:45;;;;;;;45.58;10.30;;;;;;;;;;5105332;27;20032;-29
2021/06/19 10:57:11;;;;;;;37.35;10.35;;;;;;;;;;5105838;27;20068;-27
2021/06/19 10:59:36;;;;;;;43.15;12.27;;;;;;;;;;5098427;27;20034;-28
2021/06/19 11:02:02;;;;;;;28.85;9.63;;;;;;;;;;5095722;27;20016;-29
2021/06/19 11:04:40;;;;;;;38.05;13.30;;;;;;;;;;5096007;27;20027;-30
2021/06/19 11:07:06;;;;;;;28.83;12.05;;;;;;;;;;5102401;27;20047;-28
2021/06/19 11:09:49;;;;;;;37.05;11.18;;;;;;;;;;5103734;27;20163;-32
2021/06/19 11:12:28;;;;;;;48.08;12.60;;;;;;;;;;5101139;27;20063;-30
2021/06/19 11:14:55;;;;;;;37.72;12.10;;;;;;;;;;5102709;27;20034;-27
2021/06/19 11:17:20;;;;;;;41.50;8.98;;;;;;;;;;5101869;27;20035;-25
2021/06/19 11:19:47;;;;;;;25.25;8.18;;;;;;;;;;5099808;27;20077;-27
2021/06/19 11:22:26;;;;;;;29.48;8.05;;;;;;;;;;5098909;27;20120;-25
2021/06/19 11:25:10;;;;;;;38.63;13.35;;;;;;;;;;5102874;27;20144;-25
2021/06/19 11:27:53;;;;;;;35.47;11.57;;;;;;;;;;5101836;27;20024;-25
2021/06/19 11:30:33;;;;;;;48.00;12.20;;;;;;;;;;5099100;27;20035;-27
2021/06/19 11:35:45;;;;;;;23.48;6.45;;;;;;;;;;5106181;27;20062;-32
2021/06/19 11:38:11;;;;;;;36.13;5.93;;;;;;;;;;5099850;27;20528;-31
2021/06/19 11:40:37;;;;;;;16.23;6.70;;;;;;;;;;5101199;27;20027;-42
2021/06/19 11:43:03;;;;;;;18.25;3.78;;;;;;;;;;5104673;27;20023;-35
2021/06/19 11:45:29;;;;;;;17.85;3.92;;;;;;;;;;5100980;27;20016;-40
2021/06/19 11:48:08;;;;;;;20.58;10.18;;;;;;;;;;5100474;27;20031;-36
2021/06/19 11:50:34;;;;;;;9.35;4.45;;;;;;;;;;5106401;27;20453;-34
2021/06/19 11:53:18;;;;;;;8.98;3.28;;;;;;;;;;5102373;27;20149;-38
2021/06/19 11:55:44;;;;;;;8.50;3.83;;;;;;;;;;5098654;27;20028;-37
2021/06/19 11:58:09;;;;;;;9.57;3.88;;;;;;;;;;5099224;27;20020;-37
2021/06/19 12:00:51;;;;;;;13.50;4.85;;;;;;;;;;5100276;27;20395;-35
2021/06/19 12:03:21;;;;;;;11.18;4.10;;;;;;;;;;5098572;27;20027;-37
2021/06/19 12:05:47;;;;;;;4.45;3.47;;;;;;;;;;5101403;27;20030;-33
2021/06/19 12:08:12;;;;;;;5.38;3.95;;;;;;;;;;5105655;27;20052;-34
2021/06/19 12:10:37;;;;;;;4.07;2.75;;;;;;;;;;5104449;27;20042;-38
2021/06/19 12:13:04;;;;;;;15.82;6.05;;;;;;;;;;5103730;27;20523;-39
2021/06/19 12:15:30;;;;;;;14.98;4.63;;;;;;;;;;5094174;27;20034;-37
2021/06/19 12:17:55;;;;;;;10.75;3.88;;;;;;;;;;5095411;27;20024;-33
2021/06/19 12:20:24;;;;;;;33.72;6.15;;;;;;;;;;5098803;27;20062;-36
2021/06/19 12:22:50;;;;;;;13.18;3.53;;;;;;;;;;5100238;27;20062;-42
2021/06/19 12:25:32;;;;;;;10.32;3.40;;;;;;;;;;5102038;27;20050;-34
2021/06/19 12:27:57;;;;;;;10.15;4.50;;;;;;;;;;5101729;27;20121;-38
2021/06/19 12:30:23;;;;;;;11.35;4.35;;;;;;;;;;5098628;27;20531;-39
2021/06/19 12:32:49;;;;;;;10.25;4.20;;;;;;;;;;5098537;27;20559;-36
2021/06/19 12:35:16;;;;;;;9.18;4.20;;;;;;;;;;5106119;27;20027;-33
2021/06/19 12:37:52;;;;;;;8.90;3.28;;;;;;;;;;5103711;27;20023;-38
2021/06/19 12:40:20;;;;;;;6.97;3.47;;;;;;;;;;5110291;27;20175;-42
2021/06/19 12:42:48;;;;;;;6.88;3.60;;;;;;;;;;5095607;27;20839;-38
2021/06/19 12:45:14;;;;;;;8.88;4.32;;;;;;;;;;5098545;27;20027;-39
2021/06/19 12:47:43;;;;;;;12.77;5.85;;;;;;;;;;5101037;27;20016;-41
2021/06/19 12:50:09;;;;;;;6.25;3.25;;;;;;;;;;5095531;28;20110;-41
2021/06/19 12:52:34;;;;;;;19.45;5.07;;;;;;;;;;5098946;27;20099;-37
2021/06/19 12:55:10;;;;;;;10.40;3.40;;;;;;;;;;5097634;27;20546;-37
2021/06/19 12:57:35;;;;;;;21.10;5.57;;;;;;;;;;5101585;27;20108;-35
2021/06/19 13:00:00;;;;;;;15.25;5.75;;;;;;;;;;5102159;27;20932;-33
2021/06/19 13:02:26;;;;;;;12.32;6.13;;;;;;;;;;5099168;27;20062;-38
2021/06/19 13:04:51;;;;;;;7.85;3.88;;;;;;;;;;5098221;27;20035;-37
2021/06/19 13:07:17;;;;;;;6.45;4.13;;;;;;;;;;5101350;27;20047;-36
2021/06/19 13:09:54;;;;;;;14.80;5.22;;;;;;;;;;5104150;27;20023;-36
2021/06/19 13:12:20;;;;;;;11.70;4.32;;;;;;;;;;5105691;27;20031;-38
2021/06/19 13:14:47;;;;;;;6.03;3.15;;;;;;;;;;5101420;27;20487;-36
2021/06/19 13:17:21;;;;;;;22.40;4.10;;;;;;;;;;5097898;27;20103;-40
2021/06/19 13:19:47;;;;;;;10.57;2.72;;;;;;;;;;5104117;27;20109;-37
2021/06/19 13:22:12;;;;;;;17.38;5.88;;;;;;;;;;5096844;27;20494;-41
2021/06/19 13:24:38;;;;;;;18.23;4.43;;;;;;;;;;5095076;28;20677;-39
2021/06/19 13:27:19;;;;;;;10.00;4.45;;;;;;;;;;5103203;27;20152;-39
2021/06/19 13:30:02;;;;;;;9.50;2.85;;;;;;;;;;5096117;28;20032;-41
2021/06/19 13:32:27;;;;;;;8.25;3.72;;;;;;;;;;5098749;28;20023;-39
2021/06/19 13:34:56;;;;;;;12.27;3.92;;;;;;;;;;5097498;27;20106;-38
2021/06/19 13:37:31;;;;;;;8.68;2.55;;;;;;;;;;5100965;27;20633;-37
2021/06/19 13:39:57;;;;;;;8.48;4.20;;;;;;;;;;5100012;28;20475;-38
2021/06/19 13:42:22;;;;;;;5.03;2.83;;;;;;;;;;5101312;28;20030;-40
2021/06/19 13:44:51;;;;;;;8.57;3.95;;;;;;;;;;5099237;28;20015;-39
2021/06/19 13:47:16;;;;;;;13.48;3.00;;;;;;;;;;5097813;28;20057;-37
2021/06/19 13:49:42;;;;;;;5.43;3.63;;;;;;;;;;5103938;28;20054;-37
2021/06/19 13:52:09;;;;;;;93.70;46.58;;;;;;;;;;5103825;28;20030;-37
2021/06/19 13:54:41;;;;;;;11.60;4.93;;;;;;;;;;5102762;27;20063;-41
2021/06/19 13:57:07;;;;;;;99.63;58.05;;;;;;;;;;5099513;28;20103;-34
2021/06/19 13:59:36;;;;;;;10.98;7.25;;;;;;;;;;5099772;28;20031;-37
2021/06/19 14:02:02;;;;;;;61.10;35.33;;;;;;;;;;5097225;28;20331;-38
2021/06/19 14:04:29;;;;;;;39.38;17.10;;;;;;;;;;5099566;27;20565;-39
2021/06/19 14:06:55;;;;;;;9.02;4.88;;;;;;;;;;5094997;28;20050;-38
2021/06/19 14:09:20;;;;;;;10.00;4.90;;;;;;;;;;5099687;28;20028;-38
2021/06/19 14:11:46;;;;;;;23.20;12.05;;;;;;;;;;5099950;28;20070;-38
2021/06/19 14:14:11;;;;;;;35.28;16.13;;;;;;;;;;5093218;28;20028;-36
2021/06/19 14:16:36;;;;;;;27.13;7.55;;;;;;;;;;5096269;28;20174;-40
2021/06/19 14:19:02;;;;;;;26.70;10.93;;;;;;;;;;5098130;28;20030;-43
2021/06/19 14:21:27;;;;;;;47.78;12.10;;;;;;;;;;5099831;28;20046;-42
2021/06/19 14:23:53;;;;;;;41.95;9.55;;;;;;;;;;5100950;28;20483;-43
2021/06/19 14:26:25;;;;;;;57.45;14.60;;;;;;;;;;5100449;28;20020;-48
2021/06/19 14:28:50;;;;;;;70.88;15.82;;;;;;;;;;5104056;28;20084;-36
2021/06/19 14:31:15;;;;;;;39.30;9.95;;;;;;;;;;5095819;27;20796;-36
2021/06/19 14:33:41;;;;;;;44.53;12.80;;;;;;;;;;5097462;28;20019;-36